sensor_id;sensor_type;location;lat;lon;timestamp;pressure;altitude;pressure_sealevel;temperature;humidity
36692;BME280;22678;52.052;4.242;2022-09-27T00:02:05;99777.41;;;11.13;82.51
36692;BME280;22678;52.052;4.242;2022-09-27T00:04:30;99809.47;;;11.26;82.06
36692;BME280;22678;52.052;4.242;2022-09-27T00:06:55;99810.38;;;11.27;81.82
36692;BME280;22678;52.052;4.242;2022-09-27T00:09:21;99793.88;;;11.20;81.75
36692;BME280;22678;52.052;4.242;2022-09-27T00:11:46;99792.16;;;11.19;81.60
36692;BME280;22678;52.052;4.242;2022-09-27T00:14:13;99799.84;;;11.27;81.17
36692;BME280;22678;52.052;4.242;2022-09-27T00:16:40;99808.31;;;11.36;80.94
36692;BME280;22678;52.052;4.242;2022-09-27T00:19:10;99814.41;;;11.38;80.67
36692;BME280;22678;52.052;4.242;2022-09-27T00:21:36;99824.91;;;11.40;80.37
36692;BME280;22678;52.052;4.242;2022-09-27T00:24:02;99803.91;;;11.38;80.25
36692;BME280;22678;52.052;4.242;2022-09-27T00:26:27;99816.31;;;11.33;80.01
36692;BME280;22678;52.052;4.242;2022-09-27T00:28:54;99817.09;;;11.37;79.70
36692;BME280;22678;52.052;4.242;2022-09-27T00:31:21;99808.38;;;11.35;78.92
36692;BME280;22678;52.052;4.242;2022-09-27T00:33:49;99823.22;;;11.37;78.82
36692;BME280;22678;52.052;4.242;2022-09-27T00:36:14;99802.34;;;11.31;78.40
36692;BME280;22678;52.052;4.242;2022-09-27T00:38:40;99828.47;;;11.37;78.21
36692;BME280;22678;52.052;4.242;2022-09-27T00:41:06;99809.91;;;11.42;78.31
36692;BME280;22678;52.052;4.242;2022-09-27T00:43:54;99817.69;;;11.47;78.60
36692;BME280;22678;52.052;4.242;2022-09-27T00:46:25;99830.69;;;11.53;79.01
36692;BME280;22678;52.052;4.242;2022-09-27T00:49:01;99814.34;;;11.42;79.68
36692;BME280;22678;52.052;4.242;2022-09-27T00:51:28;99821.16;;;11.49;79.84
36692;BME280;22678;52.052;4.242;2022-09-27T00:53:56;99828.16;;;11.50;80.66
36692;BME280;22678;52.052;4.242;2022-09-27T00:56:26;99819.59;;;11.42;80.69
36692;BME280;22678;52.052;4.242;2022-09-27T00:59:06;99836.94;;;11.49;80.97
36692;BME280;22678;52.052;4.242;2022-09-27T01:01:33;99821.47;;;11.36;81.09
36692;BME280;22678;52.052;4.242;2022-09-27T01:06:32;99830.13;;;11.42;81.18
36692;BME280;22678;52.052;4.242;2022-09-27T01:08:58;99837.97;;;11.43;81.26
36692;BME280;22678;52.052;4.242;2022-09-27T01:31:21;99828.06;;;11.20;80.01
36692;BME280;22678;52.052;4.242;2022-09-27T01:34:09;99824.63;;;11.18;80.00
36692;BME280;22678;52.052;4.242;2022-09-27T01:37:04;99823.75;;;11.19;79.81
36692;BME280;22678;52.052;4.242;2022-09-27T01:42:07;99835.97;;;11.20;79.68
36692;BME280;22678;52.052;4.242;2022-09-27T01:44:50;99823.75;;;11.19;79.36
36692;BME280;22678;52.052;4.242;2022-09-27T01:47:20;99819.38;;;11.18;79.17
36692;BME280;22678;52.052;4.242;2022-09-27T01:49:59;99822.00;;;11.18;79.03
36692;BME280;22678;52.052;4.242;2022-09-27T01:52:31;99815.88;;;11.17;78.79
36692;BME280;22678;52.052;4.242;2022-09-27T01:55:00;99825.53;;;11.17;78.26
36692;BME280;22678;52.052;4.242;2022-09-27T01:57:31;99810.63;;;11.16;78.02
36692;BME280;22678;52.052;4.242;2022-09-27T02:00:01;99822.69;;;11.25;77.37
36692;BME280;22678;52.052;4.242;2022-09-27T02:02:28;99799.38;;;11.11;76.71
36692;BME280;22678;52.052;4.242;2022-09-27T02:04:59;99824.56;;;11.21;76.25
36692;BME280;22678;52.052;4.242;2022-09-27T02:07:32;99843.59;;;11.31;76.39
36692;BME280;22678;52.052;4.242;2022-09-27T02:10:08;99853.25;;;11.30;76.53
36692;BME280;22678;52.052;4.242;2022-09-27T02:12:39;99824.06;;;11.07;76.96
36692;BME280;22678;52.052;4.242;2022-09-27T02:15:12;99837.13;;;11.10;77.24
36692;BME280;22678;52.052;4.242;2022-09-27T02:18:00;99835.41;;;11.09;78.14
36692;BME280;22678;52.052;4.242;2022-09-27T02:20:28;99830.28;;;11.02;78.29
36692;BME280;22678;52.052;4.242;2022-09-27T02:23:20;99827.81;;;10.96;79.33
36692;BME280;22678;52.052;4.242;2022-09-27T02:25:54;99818.25;;;10.94;79.46
36692;BME280;22678;52.052;4.242;2022-09-27T02:31:20;99807.13;;;10.84;80.63
36692;BME280;22678;52.052;4.242;2022-09-27T02:33:49;99798.47;;;10.79;81.06
36692;BME280;22678;52.052;4.242;2022-09-27T02:36:16;99803.81;;;10.76;80.82
36692;BME280;22678;52.052;4.242;2022-09-27T02:38:43;99815.91;;;10.83;80.99
36692;BME280;22678;52.052;4.242;2022-09-27T02:41:16;99811.56;;;10.80;81.17
36692;BME280;22678;52.052;4.242;2022-09-27T02:43:44;99817.78;;;10.78;81.12
36692;BME280;22678;52.052;4.242;2022-09-27T02:46:19;99822.06;;;10.82;81.04
36692;BME280;22678;52.052;4.242;2022-09-27T02:52:19;99819.41;;;10.82;80.74
36692;BME280;22678;52.052;4.242;2022-09-27T02:55:23;99817.72;;;10.81;80.74
36692;BME280;22678;52.052;4.242;2022-09-27T03:01:34;99820.44;;;10.78;80.62
36692;BME280;22678;52.052;4.242;2022-09-27T03:06:39;99823.09;;;10.75;80.72
36692;BME280;22678;52.052;4.242;2022-09-27T03:09:22;99821.34;;;10.75;80.77
36692;BME280;22678;52.052;4.242;2022-09-27T03:11:47;99832.03;;;10.69;80.49
36692;BME280;22678;52.052;4.242;2022-09-27T03:14:13;99845.88;;;10.76;80.23
36692;BME280;22678;52.052;4.242;2022-09-27T03:16:38;99836.41;;;10.68;80.68
36692;BME280;22678;52.052;4.242;2022-09-27T03:19:04;99832.88;;;10.69;80.56
36692;BME280;22678;52.052;4.242;2022-09-27T03:21:29;99831.16;;;10.68;80.68
36692;BME280;22678;52.052;4.242;2022-09-27T03:23:55;99831.19;;;10.67;80.44
36692;BME280;22678;52.052;4.242;2022-09-27T03:26:20;99829.63;;;10.60;80.76
36692;BME280;22678;52.052;4.242;2022-09-27T03:28:45;99851.31;;;10.69;80.82
36692;BME280;22678;52.052;4.242;2022-09-27T03:31:11;99845.22;;;10.67;80.96
36692;BME280;22678;52.052;4.242;2022-09-27T03:33:36;99820.84;;;10.61;81.00
36692;BME280;22678;52.052;4.242;2022-09-27T03:36:02;99830.34;;;10.66;81.13
36692;BME280;22678;52.052;4.242;2022-09-27T03:38:28;99821.75;;;10.58;81.29
36692;BME280;22678;52.052;4.242;2022-09-27T03:40:53;99810.56;;;10.51;81.67
36692;BME280;22678;52.052;4.242;2022-09-27T03:43:18;99864.44;;;10.69;81.77
36692;BME280;22678;52.052;4.242;2022-09-27T03:45:44;99836.59;;;10.61;81.76
36692;BME280;22678;52.052;4.242;2022-09-27T03:48:09;99828.97;;;10.51;81.58
36692;BME280;22678;52.052;4.242;2022-09-27T03:50:35;99809.00;;;10.43;81.53
36692;BME280;22678;52.052;4.242;2022-09-27T03:53:00;99823.78;;;10.48;81.56
36692;BME280;22678;52.052;4.242;2022-09-27T03:55:26;99808.03;;;10.47;81.51
36692;BME280;22678;52.052;4.242;2022-09-27T03:57:51;99802.88;;;10.44;81.73
36692;BME280;22678;52.052;4.242;2022-09-27T04:00:17;99799.47;;;10.39;81.98
36692;BME280;22678;52.052;4.242;2022-09-27T04:02:43;99811.59;;;10.44;81.98
36692;BME280;22678;52.052;4.242;2022-09-27T04:05:09;99823.91;;;10.44;82.10
36692;BME280;22678;52.052;4.242;2022-09-27T04:07:35;99804.72;;;10.39;82.19
36692;BME280;22678;52.052;4.242;2022-09-27T04:10:02;99807.31;;;10.40;82.56
36692;BME280;22678;52.052;4.242;2022-09-27T04:12:28;99821.97;;;10.50;82.58
36692;BME280;22678;52.052;4.242;2022-09-27T04:14:54;99803.72;;;10.44;82.78
36692;BME280;22678;52.052;4.242;2022-09-27T04:17:19;99821.09;;;10.50;82.83
36692;BME280;22678;52.052;4.242;2022-09-27T04:19:44;99819.38;;;10.49;83.23
36692;BME280;22678;52.052;4.242;2022-09-27T04:22:10;99801.13;;;10.43;82.87
36692;BME280;22678;52.052;4.242;2022-09-27T04:24:35;99795.19;;;10.34;82.93
36692;BME280;22678;52.052;4.242;2022-09-27T04:27:01;99842.09;;;10.51;83.13
36692;BME280;22678;52.052;4.242;2022-09-27T04:29:26;99834.41;;;10.44;83.26
36692;BME280;22678;52.052;4.242;2022-09-27T04:31:52;99839.66;;;10.44;82.89
36692;BME280;22678;52.052;4.242;2022-09-27T04:34:17;99818.84;;;10.34;82.63
36692;BME280;22678;52.052;4.242;2022-09-27T04:37:02;99823.38;;;10.26;82.35
36692;BME280;22678;52.052;4.242;2022-09-27T04:39:28;99832.97;;;10.27;82.78
36692;BME280;22678;52.052;4.242;2022-09-27T04:41:53;99830.66;;;10.15;83.02
36692;BME280;22678;52.052;4.242;2022-09-27T04:44:18;99819.31;;;10.13;83.79
36692;BME280;22678;52.052;4.242;2022-09-27T04:46:44;99823.56;;;10.17;84.03
36692;BME280;22678;52.052;4.242;2022-09-27T04:49:09;99794.88;;;10.09;83.77
36692;BME280;22678;52.052;4.242;2022-09-27T04:51:34;99821.69;;;10.24;83.99
36692;BME280;22678;52.052;4.242;2022-09-27T04:53:59;99827.78;;;10.24;84.36
36692;BME280;22678;52.052;4.242;2022-09-27T04:56:25;99808.81;;;10.13;84.40
36692;BME280;22678;52.052;4.242;2022-09-27T04:58:51;99826.09;;;10.23;84.31
36692;BME280;22678;52.052;4.242;2022-09-27T05:01:16;99813.22;;;10.11;84.26
36692;BME280;22678;52.052;4.242;2022-09-27T05:03:42;99831.38;;;10.20;84.37
36692;BME280;22678;52.052;4.242;2022-09-27T05:06:07;99807.22;;;10.06;84.28
36692;BME280;22678;52.052;4.242;2022-09-27T05:08:33;99807.94;;;10.12;84.30
36692;BME280;22678;52.052;4.242;2022-09-27T05:10:58;99821.88;;;10.16;84.11
36692;BME280;22678;52.052;4.242;2022-09-27T05:13:23;99826.13;;;10.20;84.10
36692;BME280;22678;52.052;4.242;2022-09-27T05:15:49;99814.00;;;10.16;84.35
36692;BME280;22678;52.052;4.242;2022-09-27T05:18:14;99815.69;;;10.17;84.21
36692;BME280;22678;52.052;4.242;2022-09-27T05:20:40;99818.13;;;10.26;84.41
36692;BME280;22678;52.052;4.242;2022-09-27T05:23:05;99806.03;;;10.19;84.84
36692;BME280;22678;52.052;4.242;2022-09-27T05:25:32;99788.59;;;10.15;84.87
36692;BME280;22678;52.052;4.242;2022-09-27T05:27:57;99815.59;;;10.23;85.02
36692;BME280;22678;52.052;4.242;2022-09-27T05:30:24;99827.66;;;10.30;85.33
36692;BME280;22678;52.052;4.242;2022-09-27T05:32:50;99817.13;;;10.33;85.30
36692;BME280;22678;52.052;4.242;2022-09-27T05:35:17;99815.44;;;10.29;85.51
36692;BME280;22678;52.052;4.242;2022-09-27T05:37:43;99815.50;;;10.26;85.55
36692;BME280;22678;52.052;4.242;2022-09-27T05:40:14;99818.06;;;10.29;85.55
36692;BME280;22678;52.052;4.242;2022-09-27T05:42:40;99831.13;;;10.32;85.57
36692;BME280;22678;52.052;4.242;2022-09-27T05:45:05;99819.84;;;10.27;85.49
36692;BME280;22678;52.052;4.242;2022-09-27T05:47:31;99825.94;;;10.29;85.45
36692;BME280;22678;52.052;4.242;2022-09-27T05:49:56;99826.03;;;10.26;85.33
36692;BME280;22678;52.052;4.242;2022-09-27T05:52:21;99805.19;;;10.17;85.30
36692;BME280;22678;52.052;4.242;2022-09-27T05:54:47;99821.66;;;10.25;85.08
36692;BME280;22678;52.052;4.242;2022-09-27T05:57:13;99818.94;;;10.28;85.07
36692;BME280;22678;52.052;4.242;2022-09-27T05:59:38;99832.81;;;10.37;84.84
36692;BME280;22678;52.052;4.242;2022-09-27T06:02:05;99822.41;;;10.30;84.44
36692;BME280;22678;52.052;4.242;2022-09-27T06:04:30;99815.44;;;10.29;84.66
36692;BME280;22678;52.052;4.242;2022-09-27T06:06:55;99798.06;;;10.22;84.18
36692;BME280;22678;52.052;4.242;2022-09-27T06:09:23;99824.13;;;10.31;83.97
36692;BME280;22678;52.052;4.242;2022-09-27T06:11:49;99837.13;;;10.39;84.03
36692;BME280;22678;52.052;4.242;2022-09-27T06:14:15;99829.25;;;10.38;83.89
36692;BME280;22678;52.052;4.242;2022-09-27T06:16:40;99821.38;;;10.38;82.64
36692;BME280;22678;52.052;4.242;2022-09-27T06:19:05;99816.16;;;10.36;82.38
36692;BME280;22678;52.052;4.242;2022-09-27T06:21:31;99830.84;;;10.45;82.04
36692;BME280;22678;52.052;4.242;2022-09-27T06:23:57;99822.16;;;10.43;81.67
36692;BME280;22678;52.052;4.242;2022-09-27T06:26:24;99831.53;;;10.53;81.64
36692;BME280;22678;52.052;4.242;2022-09-27T06:28:51;99826.25;;;10.55;81.41
36692;BME280;22678;52.052;4.242;2022-09-27T06:31:16;99840.13;;;10.60;81.42
36692;BME280;22678;52.052;4.242;2022-09-27T06:33:42;99816.66;;;10.52;81.40
36692;BME280;22678;52.052;4.242;2022-09-27T06:36:07;99843.56;;;10.63;81.65
36692;BME280;22678;52.052;4.242;2022-09-27T06:38:33;99840.00;;;10.64;81.75
36692;BME280;22678;52.052;4.242;2022-09-27T06:41:03;99846.84;;;10.72;82.11
36692;BME280;22678;52.052;4.242;2022-09-27T06:43:31;99849.47;;;10.72;81.81
36692;BME280;22678;52.052;4.242;2022-09-27T06:45:59;99833.22;;;10.57;81.12
36692;BME280;22678;52.052;4.242;2022-09-27T06:48:28;99845.28;;;10.64;81.05
36692;BME280;22678;52.052;4.242;2022-09-27T06:50:55;99840.94;;;10.63;80.71
36692;BME280;22678;52.052;4.242;2022-09-27T06:53:21;99843.50;;;10.66;80.59
36692;BME280;22678;52.052;4.242;2022-09-27T06:55:47;99873.06;;;10.75;80.69
36692;BME280;22678;52.052;4.242;2022-09-27T06:58:12;99869.53;;;10.76;80.62
36692;BME280;22678;52.052;4.242;2022-09-27T07:00:56;99860.16;;;10.65;80.81
36692;BME280;22678;52.052;4.242;2022-09-27T07:03:23;99866.16;;;10.72;80.79
36692;BME280;22678;52.052;4.242;2022-09-27T07:05:58;99867.06;;;10.69;81.08
36692;BME280;22678;52.052;4.242;2022-09-27T07:08:24;99861.94;;;10.65;81.06
36692;BME280;22678;52.052;4.242;2022-09-27T07:10:53;99856.78;;;10.60;81.06
36692;BME280;22678;52.052;4.242;2022-09-27T07:13:19;99846.47;;;10.51;81.24
36692;BME280;22678;52.052;4.242;2022-09-27T07:15:45;99857.75;;;10.56;81.31
36692;BME280;22678;52.052;4.242;2022-09-27T07:18:10;99843.81;;;10.52;81.42
36692;BME280;22678;52.052;4.242;2022-09-27T07:20:36;99846.44;;;10.54;81.42
36692;BME280;22678;52.052;4.242;2022-09-27T07:23:03;99839.44;;;10.53;81.43
36692;BME280;22678;52.052;4.242;2022-09-27T07:25:30;99841.97;;;10.56;81.28
36692;BME280;22678;52.052;4.242;2022-09-27T07:28:00;99849.56;;;10.68;81.49
36692;BME280;22678;52.052;4.242;2022-09-27T07:30:26;99855.63;;;10.72;81.64
36692;BME280;22678;52.052;4.242;2022-09-27T07:32:59;99867.97;;;10.68;81.74
36692;BME280;22678;52.052;4.242;2022-09-27T07:35:26;99882.78;;;10.73;81.88
36692;BME280;22678;52.052;4.242;2022-09-27T07:37:52;99865.66;;;10.56;81.91
36692;BME280;22678;52.052;4.242;2022-09-27T07:40:17;99867.31;;;10.60;82.06
36692;BME280;22678;52.052;4.242;2022-09-27T07:42:43;99863.97;;;10.52;82.30
36692;BME280;22678;52.052;4.242;2022-09-27T07:45:09;99875.22;;;10.59;82.53
36692;BME280;22678;52.052;4.242;2022-09-27T07:47:39;99877.84;;;10.59;82.77
36692;BME280;22678;52.052;4.242;2022-09-27T07:50:07;99870.81;;;10.59;82.87
36692;BME280;22678;52.052;4.242;2022-09-27T07:52:42;99879.44;;;10.64;83.21
36692;BME280;22678;52.052;4.242;2022-09-27T07:55:12;99851.72;;;10.51;83.29
36692;BME280;22678;52.052;4.242;2022-09-27T07:57:38;99870.72;;;10.64;83.52
36692;BME280;22678;52.052;4.242;2022-09-27T08:00:09;99883.72;;;10.70;83.85
36692;BME280;22678;52.052;4.242;2022-09-27T08:02:35;99885.66;;;10.62;84.01
36692;BME280;22678;52.052;4.242;2022-09-27T08:05:01;99880.41;;;10.62;84.17
36692;BME280;22678;52.052;4.242;2022-09-27T08:07:28;99890.28;;;10.52;84.26
36692;BME280;22678;52.052;4.242;2022-09-27T08:09:54;99894.72;;;10.50;84.29
36692;BME280;22678;52.052;4.242;2022-09-27T08:12:20;99915.47;;;10.61;83.85
36692;BME280;22678;52.052;4.242;2022-09-27T08:14:46;99915.59;;;10.56;83.53
36692;BME280;22678;52.052;4.242;2022-09-27T08:17:12;99930.50;;;10.56;83.74
36692;BME280;22678;52.052;4.242;2022-09-27T08:19:37;99919.28;;;10.47;83.48
36692;BME280;22678;52.052;4.242;2022-09-27T08:22:03;99935.81;;;10.54;83.13
36692;BME280;22678;52.052;4.242;2022-09-27T08:24:28;99930.59;;;10.51;83.01
36692;BME280;22678;52.052;4.242;2022-09-27T08:26:53;99934.22;;;10.47;82.74
36692;BME280;22678;52.052;4.242;2022-09-27T08:29:19;99940.16;;;10.55;82.77
36692;BME280;22678;52.052;4.242;2022-09-27T08:31:44;99936.69;;;10.53;82.55
36692;BME280;22678;52.052;4.242;2022-09-27T08:34:10;99925.34;;;10.51;82.54
36692;BME280;22678;52.052;4.242;2022-09-27T08:36:35;99927.00;;;10.55;82.65
36692;BME280;22678;52.052;4.242;2022-09-27T08:39:02;99927.81;;;10.59;82.70
36692;BME280;22678;52.052;4.242;2022-09-27T08:41:37;99912.00;;;10.60;82.84
36692;BME280;22678;52.052;4.242;2022-09-27T08:44:49;99926.50;;;10.77;83.06
36692;BME280;22678;52.052;4.242;2022-09-27T08:47:05;99919.28;;;10.85;83.23
36692;BME280;22678;52.052;4.242;2022-09-27T08:52:31;99905.09;;;10.92;83.60
36692;BME280;22678;52.052;4.242;2022-09-27T08:55:03;99912.00;;;10.96;83.71
36692;BME280;22678;52.052;4.242;2022-09-27T08:57:29;99920.59;;;11.04;83.98
36692;BME280;22678;52.052;4.242;2022-09-27T09:00:07;99900.63;;;10.96;84.13
36692;BME280;22678;52.052;4.242;2022-09-27T09:02:36;99927.34;;;11.15;84.20
36692;BME280;22678;52.052;4.242;2022-09-27T09:05:07;99910.03;;;11.06;84.24
36692;BME280;22678;52.052;4.242;2022-09-27T09:10:39;99929.22;;;11.10;84.09
36692;BME280;22678;52.052;4.242;2022-09-27T09:13:43;99921.50;;;11.02;83.99
36692;BME280;22678;52.052;4.242;2022-09-27T09:19:38;99943.50;;;10.99;83.92
36692;BME280;22678;52.052;4.242;2022-09-27T09:25:26;99952.44;;;10.92;83.66
36692;BME280;22678;52.052;4.242;2022-09-27T09:28:13;99972.69;;;10.89;83.77
36692;BME280;22678;52.052;4.242;2022-09-27T09:33:29;99945.19;;;10.66;83.52
36692;BME280;22678;52.052;4.242;2022-09-27T09:38:40;99944.59;;;10.53;83.60
36692;BME280;22678;52.052;4.242;2022-09-27T09:41:18;99946.44;;;10.48;83.75
36692;BME280;22678;52.052;4.242;2022-09-27T09:48:57;99911.84;;;10.26;84.16
36692;BME280;22678;52.052;4.242;2022-09-27T09:51:32;99940.66;;;10.30;84.17
36692;BME280;22678;52.052;4.242;2022-09-27T09:54:13;99910.28;;;10.17;84.34
36692;BME280;22678;52.052;4.242;2022-09-27T09:56:46;99911.19;;;10.16;84.57
36692;BME280;22678;52.052;4.242;2022-09-27T09:59:18;99917.06;;;10.27;84.69
36692;BME280;22678;52.052;4.242;2022-09-27T10:01:46;99903.16;;;10.24;84.86
36692;BME280;22678;52.052;4.242;2022-09-27T10:04:20;99901.31;;;10.27;85.10
36692;BME280;22678;52.052;4.242;2022-09-27T10:06:47;99930.06;;;10.37;85.29
36692;BME280;22678;52.052;4.242;2022-09-27T10:09:14;99929.03;;;10.44;85.34
36692;BME280;22678;52.052;4.242;2022-09-27T10:11:44;99942.91;;;10.49;85.38
36692;BME280;22678;52.052;4.242;2022-09-27T10:14:12;99932.31;;;10.52;85.60
36692;BME280;22678;52.052;4.242;2022-09-27T10:16:40;99915.78;;;10.48;85.75
36692;BME280;22678;52.052;4.242;2022-09-27T10:19:07;99926.09;;;10.56;85.97
36692;BME280;22678;52.052;4.242;2022-09-27T10:21:37;99928.59;;;10.62;85.95
36692;BME280;22678;52.052;4.242;2022-09-27T10:24:15;99919.88;;;10.60;86.14
36692;BME280;22678;52.052;4.242;2022-09-27T10:26:43;99917.22;;;10.62;86.22
36692;BME280;22678;52.052;4.242;2022-09-27T10:29:22;99926.59;;;10.74;86.39
36692;BME280;22678;52.052;4.242;2022-09-27T10:31:48;99912.47;;;10.78;86.69
36692;BME280;22678;52.052;4.242;2022-09-27T10:34:32;99912.31;;;10.84;86.94
36692;BME280;22678;52.052;4.242;2022-09-27T10:39:36;99908.38;;;11.02;86.95
36692;BME280;22678;52.052;4.242;2022-09-27T10:42:19;99910.78;;;11.10;86.84
36692;BME280;22678;52.052;4.242;2022-09-27T10:44:44;99915.00;;;11.17;86.67
36692;BME280;22678;52.052;4.242;2022-09-27T10:47:13;99888.03;;;11.09;86.46
36692;BME280;22678;52.052;4.242;2022-09-27T10:49:43;99889.31;;;11.27;86.55
36692;BME280;22678;52.052;4.242;2022-09-27T10:52:16;99915.69;;;11.58;86.08
36692;BME280;22678;52.052;4.242;2022-09-27T10:54:52;99913.63;;;11.69;85.41
36692;BME280;22678;52.052;4.242;2022-09-27T10:57:20;99927.28;;;11.84;84.53
36692;BME280;22678;52.052;4.242;2022-09-27T11:00:18;99906.97;;;11.87;83.22
36692;BME280;22678;52.052;4.242;2022-09-27T11:02:51;99890.22;;;11.90;82.39
36692;BME280;22678;52.052;4.242;2022-09-27T11:07:56;99894.75;;;12.16;81.08
36692;BME280;22678;52.052;4.242;2022-09-27T11:10:30;99913.22;;;12.44;80.21
36692;BME280;22678;52.052;4.242;2022-09-27T11:13:15;99918.69;;;12.67;78.67
36692;BME280;22678;52.052;4.242;2022-09-27T11:26:59;99900.34;;;12.90;70.62
36692;BME280;22678;52.052;4.242;2022-09-27T11:29:35;99913.38;;;12.95;70.50
36692;BME280;22678;52.052;4.242;2022-09-27T11:38:14;99916.94;;;12.94;68.31
36692;BME280;22678;52.052;4.242;2022-09-27T11:48:44;99902.63;;;13.01;66.28
36692;BME280;22678;52.052;4.242;2022-09-27T11:57:38;99898.75;;;13.38;66.11
36692;BME280;22678;52.052;4.242;2022-09-27T12:06:05;99889.91;;;13.88;63.31
36692;BME280;22678;52.052;4.242;2022-09-27T12:11:26;99893.81;;;14.03;61.42
36692;BME280;22678;52.052;4.242;2022-09-27T12:13:58;99879.41;;;14.10;60.86
36692;BME280;22678;52.052;4.242;2022-09-27T12:16:26;99871.69;;;14.28;61.01
36692;BME280;22678;52.052;4.242;2022-09-27T12:18:53;99884.91;;;14.50;61.00
36692;BME280;22678;52.052;4.242;2022-09-27T12:21:19;99873.03;;;14.38;60.71
36692;BME280;22678;52.052;4.242;2022-09-27T12:23:52;99864.06;;;14.20;60.49
36692;BME280;22678;52.052;4.242;2022-09-27T12:26:22;99878.25;;;14.17;60.42
36692;BME280;22678;52.052;4.242;2022-09-27T12:28:58;99877.34;;;13.95;60.52
36692;BME280;22678;52.052;4.242;2022-09-27T12:31:33;99883.66;;;13.91;61.22
36692;BME280;22678;52.052;4.242;2022-09-27T12:36:45;99877.59;;;13.65;61.54
36692;BME280;22678;52.052;4.242;2022-09-27T12:39:18;99863.78;;;13.57;61.89
36692;BME280;22678;52.052;4.242;2022-09-27T12:42:32;99881.81;;;13.69;62.41
36692;BME280;22678;52.052;4.242;2022-09-27T12:45:01;99855.38;;;13.69;62.43
36692;BME280;22678;52.052;4.242;2022-09-27T12:52:51;99867.50;;;13.98;60.87
36692;BME280;22678;52.052;4.242;2022-09-27T12:55:34;99881.63;;;13.99;60.87
36692;BME280;22678;52.052;4.242;2022-09-27T13:00:47;99879.03;;;13.97;60.07
36692;BME280;22678;52.052;4.242;2022-09-27T13:05:58;99866.00;;;13.93;60.05
36692;BME280;22678;52.052;4.242;2022-09-27T13:13:44;99852.31;;;13.81;59.40
36692;BME280;22678;52.052;4.242;2022-09-27T13:16:10;99859.66;;;13.73;59.62
36692;BME280;22678;52.052;4.242;2022-09-27T13:18:58;99858.69;;;13.76;60.55
36692;BME280;22678;52.052;4.242;2022-09-27T13:24:38;99841.16;;;13.73;61.27
36692;BME280;22678;52.052;4.242;2022-09-27T13:35:34;99821.00;;;13.71;61.95
36692;BME280;22678;52.052;4.242;2022-09-27T13:38:01;99840.53;;;13.90;61.79
36692;BME280;22678;52.052;4.242;2022-09-27T13:48:51;99832.19;;;14.01;60.44
36692;BME280;22678;52.052;4.242;2022-09-27T13:51:29;99833.03;;;14.01;60.72
36692;BME280;22678;52.052;4.242;2022-09-27T13:54:01;99834.81;;;14.01;60.95
36692;BME280;22678;52.052;4.242;2022-09-27T13:56:48;99832.31;;;13.98;61.15
36692;BME280;22678;52.052;4.242;2022-09-27T14:02:02;99817.84;;;13.84;60.38
36692;BME280;22678;52.052;4.242;2022-09-27T14:04:40;99811.97;;;13.76;60.38
36692;BME280;22678;52.052;4.242;2022-09-27T14:07:09;99815.75;;;13.69;60.46
36692;BME280;22678;52.052;4.242;2022-09-27T14:09:39;99822.28;;;13.60;60.65
36692;BME280;22678;52.052;4.242;2022-09-27T14:12:11;99815.56;;;13.52;61.24
36692;BME280;22678;52.052;4.242;2022-09-27T14:14:40;99806.25;;;13.41;61.32
36692;BME280;22678;52.052;4.242;2022-09-27T14:17:07;99812.50;;;13.39;61.61
36692;BME280;22678;52.052;4.242;2022-09-27T14:19:38;99801.34;;;13.29;62.12
36692;BME280;22678;52.052;4.242;2022-09-27T14:22:03;99794.41;;;13.26;62.26
36692;BME280;22678;52.052;4.242;2022-09-27T14:27:04;99795.28;;;13.27;61.60
36692;BME280;22678;52.052;4.242;2022-09-27T14:29:36;99785.13;;;13.14;61.58
36692;BME280;22678;52.052;4.242;2022-09-27T14:32:26;99779.72;;;13.19;61.83
36692;BME280;22678;52.052;4.242;2022-09-27T14:38:00;99793.44;;;13.04;62.99
36692;BME280;22678;52.052;4.242;2022-09-27T14:40:27;99789.25;;;12.98;64.15
36692;BME280;22678;52.052;4.242;2022-09-27T14:42:54;99799.13;;;12.93;65.56
36692;BME280;22678;52.052;4.242;2022-09-27T14:45:25;99805.97;;;12.99;66.57
36692;BME280;22678;52.052;4.242;2022-09-27T14:47:51;99794.69;;;12.93;67.13
36692;BME280;22678;52.052;4.242;2022-09-27T14:52:43;99790.25;;;12.94;67.92
36692;BME280;22678;52.052;4.242;2022-09-27T14:55:19;99796.38;;;12.96;68.21
36692;BME280;22678;52.052;4.242;2022-09-27T14:57:51;99798.09;;;12.97;67.86
36692;BME280;22678;52.052;4.242;2022-09-27T15:02:51;99783.59;;;13.09;68.29
36692;BME280;22678;52.052;4.242;2022-09-27T15:05:21;99764.25;;;13.08;68.43
36692;BME280;22678;52.052;4.242;2022-09-27T15:07:47;99783.91;;;13.25;68.50
36692;BME280;22678;52.052;4.242;2022-09-27T15:10:15;99767.38;;;13.20;67.89
36692;BME280;22678;52.052;4.242;2022-09-27T15:12:42;99781.13;;;13.29;67.83
36692;BME280;22678;52.052;4.242;2022-09-27T15:15:14;99752.44;;;13.19;67.96
36692;BME280;22678;52.052;4.242;2022-09-27T15:17:42;99768.06;;;13.25;67.74
36692;BME280;22678;52.052;4.242;2022-09-27T15:20:21;99775.06;;;13.26;67.55
36692;BME280;22678;52.052;4.242;2022-09-27T15:22:48;99771.63;;;13.24;67.62
36692;BME280;22678;52.052;4.242;2022-09-27T15:27:53;99761.50;;;13.11;67.67
36692;BME280;22678;52.052;4.242;2022-09-27T15:32:58;99753.59;;;13.11;67.15
36692;BME280;22678;52.052;4.242;2022-09-27T15:35:32;99752.97;;;13.05;66.47
36692;BME280;22678;52.052;4.242;2022-09-27T15:41:04;99767.78;;;13.09;66.28
36692;BME280;22678;52.052;4.242;2022-09-27T15:43:44;99751.28;;;13.02;66.42
36692;BME280;22678;52.052;4.242;2022-09-27T15:46:36;99755.38;;;13.11;66.78
36692;BME280;22678;52.052;4.242;2022-09-27T15:49:26;99739.94;;;13.00;66.83
36692;BME280;22678;52.052;4.242;2022-09-27T15:51:53;99752.00;;;13.07;66.71
36692;BME280;22678;52.052;4.242;2022-09-27T15:54:20;99748.66;;;13.02;66.38
36692;BME280;22678;52.052;4.242;2022-09-27T15:56:50;99753.13;;;13.00;65.96
36692;BME280;22678;52.052;4.242;2022-09-27T15:59:27;99749.66;;;12.98;65.95
36692;BME280;22678;52.052;4.242;2022-09-27T16:01:55;99747.97;;;12.97;65.68